Terminal Aerodrome Forecast
Issued by NWS

Home | Current Version | Previous Version | Text Only | Print | Product List | Glossary On
Versions: 1 2 3 4 5 6 7 8 9 10 11 12 13 14 15 16 17 18 19 20
350
FTUS43 KBIS 211258 AAA
TAFMOT
TAF AMD
KMOT 211258Z 2113/2212 00000KT 2SM BR SCT013 OVC019
      TEMPO 2113/2116 1SM -SN BR BKN013 OVC019
     FM211600 VRB03KT 1SM -FZDZ BR OVC006
     FM212100 23004KT 5SM BR OVC008
     FM220100 29004KT 3SM BR OVC003=

USA.gov is the U.S. government's official web portal to all federal, state and local government web resources and services.